createdAt,value
2023-04-06T00:01:11.060Z,56.30
2023-04-06T00:03:40.934Z,56.27
2023-04-06T00:06:17.954Z,56.63
2023-04-06T00:08:48.378Z,56.44
2023-04-06T00:11:18.341Z,56.63
2023-04-06T00:13:49.920Z,56.66
2023-04-06T00:16:19.472Z,56.45
2023-04-06T00:18:50.374Z,56.50
2023-04-06T00:21:20.518Z,56.94
2023-04-06T00:23:50.816Z,57.03
2023-04-06T00:26:23.317Z,57.02
2023-04-06T00:28:56.760Z,57.04
2023-04-06T00:31:26.082Z,56.73
2023-04-06T00:33:55.807Z,56.39
2023-04-06T00:36:26.518Z,56.61
2023-04-06T00:38:59.511Z,56.68
2023-04-06T00:41:33.966Z,57.05
2023-04-06T00:44:05.468Z,57.30
2023-04-06T00:46:34.616Z,57.56
2023-04-06T00:49:08.348Z,57.49
2023-04-06T00:51:37.950Z,57.51
2023-04-06T00:54:07.888Z,57.34
2023-04-06T00:56:41.291Z,57.44
2023-04-06T00:59:11.241Z,57.73
2023-04-06T01:01:41.511Z,57.89
2023-04-06T01:04:10.873Z,58.27
2023-04-06T01:06:41.503Z,58.18
2023-04-06T01:09:15.294Z,58.29
2023-04-06T01:11:44.790Z,58.76
2023-04-06T01:14:14.912Z,58.44
2023-04-06T01:16:44.463Z,58.00
2023-04-06T01:19:13.962Z,57.87
2023-04-06T01:21:43.903Z,57.90
2023-04-06T01:24:14.432Z,58.05
2023-04-06T01:26:44.424Z,58.42
2023-04-06T01:29:14.621Z,58.94
2023-04-06T01:31:45.218Z,58.73
2023-04-06T01:34:15.464Z,58.42
2023-04-06T01:36:45.266Z,58.44
2023-04-06T01:39:17.208Z,58.16
2023-04-06T01:41:47.797Z,58.18
2023-04-06T01:44:22.791Z,58.85
2023-04-06T01:46:54.209Z,58.47
2023-04-06T01:49:26.967Z,58.45
2023-04-06T01:51:56.556Z,58.96
2023-04-06T01:54:26.341Z,58.68
2023-04-06T01:56:55.703Z,58.89
2023-04-06T01:59:25.495Z,58.81
2023-04-06T02:01:55.402Z,58.55
2023-04-06T02:04:25.975Z,58.76
2023-04-06T02:06:58.389Z,58.88
2023-04-06T02:09:27.478Z,58.70
2023-04-06T02:11:58.705Z,59.04
2023-04-06T02:14:30.477Z,59.17
2023-04-06T02:17:02.094Z,59.14
2023-04-06T02:19:37.090Z,58.69
2023-04-06T02:22:06.230Z,58.12
2023-04-06T02:24:36.322Z,58.24
2023-04-06T02:27:06.686Z,58.54
2023-04-06T02:29:38.122Z,58.39
2023-04-06T02:32:08.155Z,58.55
2023-04-06T02:34:39.395Z,58.37
2023-04-06T02:37:08.745Z,58.58
2023-04-06T02:39:38.432Z,58.39
2023-04-06T02:42:10.125Z,59.10
2023-04-06T02:44:39.668Z,58.67
2023-04-06T02:47:08.731Z,58.60
2023-04-06T02:49:38.212Z,58.78
2023-04-06T02:52:09.570Z,59.11
2023-04-06T02:54:41.491Z,59.15
2023-04-06T02:57:11.091Z,59.12
2023-04-06T02:59:40.147Z,59.11
2023-04-06T03:02:09.599Z,58.91
2023-04-06T03:04:40.555Z,58.58
2023-04-06T03:07:10.035Z,58.75
2023-04-06T03:09:39.920Z,58.78
2023-04-06T03:12:10.084Z,58.75
2023-04-06T03:14:39.785Z,58.53
2023-04-06T03:17:10.133Z,58.58
2023-04-06T03:19:39.004Z,58.62
2023-04-06T03:22:08.619Z,58.39
2023-04-06T03:24:37.850Z,58.66
2023-04-06T03:27:13.176Z,58.89
2023-04-06T03:29:42.528Z,58.83
2023-04-06T03:41:41.950Z,57.76
2023-04-06T03:44:33.131Z,57.57
2023-04-06T03:47:02.928Z,57.20
2023-04-06T03:49:32.044Z,57.50
2023-04-06T03:52:02.659Z,57.69
2023-04-06T03:54:32.090Z,58.15
2023-04-06T03:57:01.836Z,58.30
2023-04-06T03:59:31.080Z,58.63
2023-04-06T04:02:00.137Z,58.78
2023-04-06T04:04:29.195Z,58.91
2023-04-06T04:06:58.204Z,58.46
2023-04-06T04:09:29.615Z,58.22
2023-04-06T04:11:58.997Z,58.38
2023-04-06T04:14:28.110Z,58.40
2023-04-06T04:16:57.280Z,58.67
2023-04-06T04:19:26.357Z,58.78
2023-04-06T04:21:58.164Z,58.40
2023-04-06T04:24:27.363Z,58.28
2023-04-06T04:26:56.839Z,57.99
2023-04-06T04:29:25.708Z,58.10
2023-04-06T04:31:54.803Z,58.07
2023-04-06T04:34:25.798Z,58.47
2023-04-06T04:36:57.426Z,58.24
2023-04-06T04:39:26.435Z,57.97
2023-04-06T04:41:55.536Z,57.86
2023-04-06T04:44:24.751Z,57.66
2023-04-06T04:46:54.170Z,57.34
2023-04-06T04:49:23.751Z,57.21
2023-04-06T04:51:56.736Z,57.18
2023-04-06T04:54:27.227Z,57.27
2023-04-06T04:56:56.918Z,57.46
2023-04-06T04:59:25.847Z,57.79
2023-04-06T05:01:58.666Z,57.96
2023-04-06T05:04:27.899Z,58.16
2023-04-06T05:07:06.275Z,57.99
2023-04-06T05:09:35.202Z,57.66
2023-04-06T05:12:06.191Z,57.59
2023-04-06T05:14:35.365Z,57.62
2023-04-06T05:17:04.840Z,57.49
2023-04-06T05:19:34.349Z,57.31
2023-04-06T05:22:04.258Z,57.72
2023-04-06T05:24:33.612Z,57.71
2023-04-06T05:27:03.167Z,57.88
2023-04-06T05:29:32.466Z,57.90
2023-04-06T05:32:04.325Z,57.72
2023-04-06T05:34:33.461Z,57.57
2023-04-06T05:37:02.447Z,57.63
2023-04-06T05:39:31.841Z,57.38
2023-04-06T05:42:03.557Z,57.40
2023-04-06T05:44:32.614Z,57.37
2023-04-06T05:47:01.429Z,57.47
2023-04-06T05:49:30.743Z,57.71
2023-04-06T05:51:59.888Z,57.89
2023-04-06T05:54:28.964Z,57.92
2023-04-06T05:56:57.884Z,57.59
2023-04-06T05:59:26.996Z,57.19
2023-04-06T06:01:59.562Z,56.77
2023-04-06T06:04:28.714Z,56.98
2023-04-06T06:06:57.710Z,57.13
2023-04-06T06:09:27.281Z,56.94
2023-04-06T06:11:56.839Z,57.04
2023-04-06T06:14:26.023Z,57.14
2023-04-06T06:16:55.149Z,56.99
2023-04-06T06:19:24.668Z,56.95
2023-04-06T06:22:03.250Z,56.76
2023-04-06T06:24:32.496Z,56.95
2023-04-06T06:27:28.433Z,56.91
2023-04-06T06:30:03.086Z,56.95
2023-04-06T06:32:32.402Z,56.79
2023-04-06T06:35:23.983Z,56.98
2023-04-06T06:38:34.502Z,56.65
2023-04-06T06:41:03.349Z,56.05
2023-04-06T06:47:01.446Z,56.65
2023-04-06T06:49:59.300Z,56.64
2023-04-06T06:52:54.231Z,56.27
2023-04-06T06:55:23.442Z,55.92
2023-04-06T06:57:52.261Z,55.90
2023-04-06T07:00:23.325Z,55.61
2023-04-06T07:02:53.058Z,55.37
2023-04-06T07:05:29.835Z,54.96
2023-04-06T07:07:58.644Z,54.71
2023-04-06T07:10:28.315Z,54.45
2023-04-06T07:12:57.481Z,54.63
2023-04-06T07:15:27.135Z,54.49
2023-04-06T07:17:57.012Z,54.47
2023-04-06T07:20:29.011Z,53.88
2023-04-06T07:22:58.685Z,53.57
2023-04-06T07:25:27.752Z,52.82
2023-04-06T07:27:57.092Z,52.01
2023-04-06T07:30:28.473Z,51.77
2023-04-06T07:32:58.134Z,51.17
2023-04-06T07:35:28.586Z,51.26
2023-04-06T07:37:57.676Z,51.74
2023-04-06T07:40:27.628Z,51.14
2023-04-06T07:42:58.089Z,51.03
2023-04-06T07:45:27.373Z,51.02
2023-04-06T07:47:56.947Z,50.41
2023-04-06T07:50:46.839Z,49.63
2023-04-06T07:53:15.751Z,50.22
2023-04-06T07:55:44.716Z,49.74
2023-04-06T07:58:13.523Z,49.27
2023-04-06T08:00:42.989Z,49.51
2023-04-06T08:03:12.241Z,49.84
2023-04-06T08:05:41.472Z,50.08
2023-04-06T08:08:11.324Z,50.05
2023-04-06T08:10:40.328Z,50.13
2023-04-06T08:13:10.540Z,50.22
2023-04-06T08:15:39.745Z,50.28
2023-04-06T08:18:09.663Z,49.74
2023-04-06T08:20:42.186Z,48.70
2023-04-06T08:23:11.711Z,48.67
2023-04-06T08:25:40.559Z,48.48
2023-04-06T08:28:10.111Z,48.03
2023-04-06T08:30:40.673Z,48.16
2023-04-06T08:33:10.197Z,48.73
2023-04-06T08:35:40.386Z,48.93
2023-04-06T08:38:10.344Z,48.99
2023-04-06T08:40:40.685Z,48.90
2023-04-06T08:43:15.570Z,48.40
2023-04-06T08:45:44.424Z,48.17
2023-04-06T08:48:17.469Z,48.14
2023-04-06T08:50:47.838Z,48.39
2023-04-06T08:53:22.985Z,48.34
2023-04-06T08:55:53.327Z,48.49
2023-04-06T08:58:38.575Z,48.80
2023-04-06T09:01:10.247Z,49.05
2023-04-06T09:03:41.896Z,49.03
2023-04-06T09:06:12.535Z,49.64
2023-04-06T09:12:28.704Z,49.76
2023-04-06T09:18:29.999Z,48.38
2023-04-06T09:21:06.534Z,48.24
2023-04-06T09:23:39.441Z,48.79
2023-04-06T09:26:11.111Z,49.21
2023-04-06T09:28:47.859Z,49.60
2023-04-06T09:31:17.802Z,49.32
2023-04-06T09:33:48.186Z,49.45
2023-04-06T09:36:17.111Z,49.59
2023-04-06T09:38:56.991Z,49.66
2023-04-06T09:41:27.263Z,49.23
2023-04-06T09:44:04.981Z,49.65
2023-04-06T09:46:50.759Z,49.37
2023-04-06T09:49:25.660Z,49.24
2023-04-06T09:51:58.265Z,48.65
2023-04-06T09:54:31.738Z,48.78
2023-04-06T09:57:08.989Z,49.08
2023-04-06T09:59:45.804Z,49.27
2023-04-06T10:02:21.798Z,48.98
2023-04-06T10:05:12.129Z,49.23
2023-04-06T10:07:58.995Z,49.76
2023-04-06T10:10:30.227Z,49.79
2023-04-06T10:13:00.698Z,50.12
2023-04-06T10:15:52.926Z,50.62
2023-04-06T10:18:27.914Z,51.20
2023-04-06T10:21:04.379Z,51.32
2023-04-06T10:23:36.696Z,51.68
2023-04-06T10:26:06.685Z,51.71
2023-04-06T10:28:38.812Z,51.69
2023-04-06T10:31:08.733Z,51.29
2023-04-06T10:33:38.235Z,50.98
2023-04-06T10:36:23.803Z,51.56
2023-04-06T10:39:02.741Z,52.01
2023-04-06T10:41:42.253Z,53.15
2023-04-06T10:44:21.111Z,54.35
2023-04-06T10:46:56.622Z,55.38
2023-04-06T10:49:29.942Z,56.69
2023-04-06T10:51:59.997Z,57.04
2023-04-06T10:55:03.569Z,57.48
2023-04-06T10:57:33.639Z,57.81
2023-04-06T11:00:49.563Z,58.38
2023-04-06T11:03:22.914Z,58.43
2023-04-06T11:05:53.177Z,58.01
2023-04-06T11:08:28.997Z,57.81
2023-04-06T11:11:22.685Z,57.88
2023-04-06T11:13:54.610Z,58.21
2023-04-06T11:16:28.158Z,58.82
2023-04-06T11:19:01.149Z,59.14
2023-04-06T11:21:40.143Z,59.15
2023-04-06T11:24:20.866Z,59.37
2023-04-06T11:26:52.830Z,59.23
2023-04-06T11:29:48.146Z,59.67
2023-04-06T11:32:27.715Z,61.00
2023-04-06T11:35:05.266Z,61.78
2023-04-06T11:37:40.878Z,62.32
2023-04-06T11:40:12.066Z,62.91
2023-04-06T11:42:40.952Z,62.80
2023-04-06T11:45:16.395Z,63.14
2023-04-06T11:47:45.494Z,63.47
2023-04-06T11:50:16.064Z,63.78
2023-04-06T11:52:45.514Z,63.93
2023-04-06T11:55:17.010Z,63.98
2023-04-06T11:57:46.346Z,64.20
2023-04-06T12:00:17.492Z,64.38
2023-04-06T12:02:50.323Z,64.29
2023-04-06T12:05:19.428Z,65.32
2023-04-06T12:07:48.151Z,65.91
2023-04-06T12:10:17.056Z,67.09
2023-04-06T12:12:46.943Z,67.65
2023-04-06T12:15:16.309Z,68.46
2023-04-06T12:17:46.049Z,69.21
2023-04-06T12:20:25.850Z,70.14
2023-04-06T12:22:57.311Z,70.03
2023-04-06T12:25:26.503Z,70.56
2023-04-06T12:28:03.771Z,71.19
2023-04-06T12:30:35.725Z,71.56
2023-04-06T12:33:05.218Z,71.95
2023-04-06T12:35:36.782Z,72.38
2023-04-06T12:38:09.279Z,72.40
2023-04-06T12:40:40.690Z,72.41
2023-04-06T12:43:10.053Z,72.58
2023-04-06T12:45:38.990Z,72.48
2023-04-06T12:48:08.380Z,73.18
2023-04-06T12:50:37.454Z,72.77
2023-04-06T12:53:06.418Z,72.94
2023-04-06T12:55:35.451Z,73.61
2023-04-06T12:58:04.398Z,73.75
2023-04-06T13:00:33.401Z,73.83
2023-04-06T13:03:02.506Z,74.14
2023-04-06T13:05:32.510Z,74.32
2023-04-06T13:08:02.591Z,74.22
2023-04-06T13:10:31.630Z,74.24
2023-04-06T13:13:00.828Z,74.82
2023-04-06T13:15:29.783Z,75.18
2023-04-06T13:17:58.794Z,75.36
2023-04-06T13:20:28.431Z,75.41
2023-04-06T13:22:57.233Z,75.26
2023-04-06T13:25:26.333Z,74.82
2023-04-06T13:27:55.390Z,74.74
2023-04-06T13:30:24.925Z,74.99
2023-04-06T13:32:54.439Z,75.14
2023-04-06T13:35:24.656Z,75.39
2023-04-06T13:37:54.797Z,75.48
2023-04-06T13:40:25.660Z,75.52
2023-04-06T13:42:54.446Z,75.87
2023-04-06T13:45:23.445Z,75.99
2023-04-06T13:47:54.126Z,76.36
2023-04-06T13:50:23.051Z,76.66
2023-04-06T13:52:52.051Z,76.75
2023-04-06T13:55:21.933Z,76.47
2023-04-06T13:57:51.163Z,76.88
2023-04-06T14:00:21.195Z,77.05
2023-04-06T14:02:54.275Z,76.97
2023-04-06T14:05:24.711Z,76.54
2023-04-06T14:07:54.990Z,76.51
2023-04-06T14:10:27.213Z,76.66
2023-04-06T14:12:56.402Z,77.28
2023-04-06T14:15:25.411Z,77.37
2023-04-06T14:17:55.499Z,77.59
2023-04-06T14:20:24.461Z,77.43
2023-04-06T14:22:55.531Z,77.42
2023-04-06T14:25:24.568Z,77.72
2023-04-06T14:27:54.110Z,77.80
2023-04-06T14:30:23.373Z,78.15
2023-04-06T14:32:53.468Z,77.99
2023-04-06T14:35:22.689Z,77.96
2023-04-06T14:37:52.183Z,78.19
2023-04-06T14:40:22.030Z,78.22
2023-04-06T14:42:52.154Z,78.55
2023-04-06T14:45:23.256Z,78.59
2023-04-06T14:47:52.958Z,78.73
2023-04-06T14:50:21.956Z,78.49
2023-04-06T14:52:52.066Z,78.21
2023-04-06T14:55:22.152Z,78.33
2023-04-06T14:57:51.088Z,78.52
2023-04-06T15:00:21.656Z,78.58
2023-04-06T15:02:51.526Z,78.12
2023-04-06T15:05:21.609Z,77.84
2023-04-06T15:07:50.750Z,78.26
2023-04-06T15:10:19.970Z,78.41
2023-04-06T15:12:49.860Z,78.97
2023-04-06T15:15:20.646Z,79.03
2023-04-06T15:17:50.574Z,79.31
2023-04-06T15:20:19.995Z,79.50
2023-04-06T15:22:49.165Z,79.53
2023-04-06T15:25:18.848Z,79.69
2023-04-06T15:27:49.293Z,79.80
2023-04-06T15:30:19.291Z,79.83
2023-04-06T15:33:04.842Z,79.76
2023-04-06T15:35:46.291Z,79.51
2023-04-06T15:38:22.845Z,78.44
2023-04-06T15:40:52.590Z,77.82
2023-04-06T15:43:27.191Z,77.79
2023-04-06T15:46:02.265Z,78.13
2023-04-06T15:48:35.760Z,77.83
2023-04-06T15:51:17.069Z,77.68
2023-04-06T15:53:49.467Z,78.45
2023-04-06T15:56:18.477Z,78.74
2023-04-06T15:58:48.235Z,78.98
2023-04-06T16:01:19.448Z,78.88
2023-04-06T16:03:48.904Z,79.24
2023-04-06T16:06:18.209Z,79.55
2023-04-06T16:08:48.093Z,79.46
2023-04-06T16:11:17.759Z,79.69
2023-04-06T16:13:50.075Z,79.59
2023-04-06T16:16:24.846Z,79.67
2023-04-06T16:18:55.640Z,79.93
2023-04-06T16:21:27.647Z,80.27
2023-04-06T16:23:58.534Z,80.11
2023-04-06T16:26:28.805Z,79.83
2023-04-06T16:29:00.539Z,79.24
2023-04-06T16:31:29.825Z,78.81
2023-04-06T16:33:59.636Z,78.60
2023-04-06T16:36:31.421Z,79.21
2023-04-06T16:39:01.964Z,79.39
2023-04-06T16:41:32.340Z,79.34
2023-04-06T16:44:03.468Z,78.86
2023-04-06T16:46:33.482Z,78.82
2023-04-06T16:49:03.500Z,79.00
2023-04-06T16:51:33.427Z,78.94
2023-04-06T16:54:02.493Z,79.43
2023-04-06T16:56:32.279Z,80.17
2023-04-06T16:59:01.449Z,80.21
2023-04-06T17:01:30.812Z,79.93
2023-04-06T17:04:01.621Z,79.48
2023-04-06T17:06:31.357Z,79.29
2023-04-06T17:09:00.511Z,79.66
2023-04-06T17:11:39.830Z,79.91
2023-04-06T17:14:15.062Z,80.52
2023-04-06T17:16:43.992Z,80.59
2023-04-06T17:19:13.569Z,80.06
2023-04-06T17:21:44.654Z,79.30
2023-04-06T17:24:14.308Z,79.27
2023-04-06T17:26:43.492Z,79.32
2023-04-06T17:29:12.895Z,79.61
2023-04-06T17:31:44.264Z,79.98
2023-04-06T17:34:22.781Z,79.75
2023-04-06T17:37:32.667Z,79.78
2023-04-06T17:40:01.749Z,79.00
2023-04-06T17:42:30.737Z,78.54
2023-04-06T17:45:01.445Z,78.80
2023-04-06T17:47:33.512Z,78.95
2023-04-06T17:50:04.055Z,79.04
2023-04-06T17:52:33.523Z,78.78
2023-04-06T17:55:04.322Z,78.37
2023-04-06T17:57:33.493Z,78.36
2023-04-06T18:00:02.175Z,78.41
2023-04-06T18:02:36.072Z,78.74
2023-04-06T18:05:06.363Z,78.42
2023-04-06T18:07:36.593Z,78.27
2023-04-06T18:10:08.793Z,78.08
2023-04-06T18:12:38.094Z,77.73
2023-04-06T18:15:08.888Z,77.86
2023-04-06T18:17:38.018Z,77.93
2023-04-06T18:20:10.162Z,78.18
2023-04-06T18:22:39.262Z,78.70
2023-04-06T18:25:10.236Z,79.15
2023-04-06T18:27:39.948Z,78.94
2023-04-06T18:30:13.696Z,78.70
2023-04-06T18:32:42.894Z,78.45
2023-04-06T18:35:14.355Z,78.60
2023-04-06T18:37:45.064Z,78.99
2023-04-06T18:40:38.577Z,79.55
2023-04-06T18:43:08.661Z,79.78
2023-04-06T18:45:39.101Z,79.76
2023-04-06T18:48:09.430Z,79.74
2023-04-06T18:50:41.224Z,79.54
2023-04-06T18:53:10.757Z,79.29
2023-04-06T18:55:45.035Z,79.15
2023-04-06T18:58:14.232Z,79.35
2023-04-06T19:00:44.777Z,78.98
2023-04-06T19:03:14.623Z,78.01
2023-04-06T19:05:44.338Z,77.84
2023-04-06T19:08:13.805Z,78.14
2023-04-06T19:10:42.641Z,78.41
2023-04-06T19:13:11.714Z,78.74
2023-04-06T19:15:43.962Z,79.10
2023-04-06T19:18:13.023Z,79.30
2023-04-06T19:20:42.115Z,79.34
2023-04-06T19:23:13.377Z,78.98
2023-04-06T19:25:44.079Z,78.32
2023-04-06T19:28:14.417Z,78.86
2023-04-06T19:30:43.505Z,79.79
2023-04-06T19:33:12.586Z,80.14
2023-04-06T19:35:45.539Z,79.96
2023-04-06T19:38:16.397Z,79.83
2023-04-06T19:40:45.674Z,80.08
2023-04-06T19:43:16.988Z,80.11
2023-04-06T19:45:46.607Z,80.27
2023-04-06T19:48:15.828Z,80.62
2023-04-06T19:50:45.257Z,80.88
2023-04-06T19:53:14.202Z,80.82
2023-04-06T19:55:54.882Z,81.07
2023-04-06T19:58:55.828Z,81.29
2023-04-06T20:01:25.029Z,80.95
2023-04-06T20:04:00.051Z,80.32
2023-04-06T20:06:38.558Z,80.02
2023-04-06T20:09:13.717Z,79.86
2023-04-06T20:11:49.684Z,80.17
2023-04-06T20:14:32.293Z,80.65
2023-04-06T20:17:17.814Z,80.63
2023-04-06T20:20:09.389Z,80.73
2023-04-06T20:23:18.543Z,81.05
2023-04-06T20:25:54.521Z,80.39
2023-04-06T20:28:30.027Z,80.30
2023-04-06T20:31:21.991Z,80.57
2023-04-06T20:33:53.942Z,80.53
2023-04-06T20:36:27.483Z,80.53
2023-04-06T20:38:59.570Z,80.86
2023-04-06T20:41:35.145Z,81.26
2023-04-06T20:44:14.220Z,81.36
2023-04-06T20:47:04.420Z,81.41
2023-04-06T20:49:33.411Z,80.88
2023-04-06T20:52:03.205Z,80.86
2023-04-06T20:54:32.409Z,80.90
2023-04-06T20:57:02.591Z,81.28
2023-04-06T20:59:31.713Z,81.51
2023-04-06T21:02:00.820Z,81.78
2023-04-06T21:04:29.886Z,82.12
2023-04-06T21:06:59.565Z,82.14
2023-04-06T21:09:28.823Z,81.81
2023-04-06T21:12:12.141Z,82.00
2023-04-06T21:15:03.899Z,82.22
2023-04-06T21:17:36.629Z,82.00
2023-04-06T21:20:33.163Z,82.15
2023-04-06T21:23:05.821Z,82.50
2023-04-06T21:25:44.309Z,82.51
2023-04-06T21:28:32.521Z,82.70
2023-04-06T21:31:09.746Z,82.85
2023-04-06T21:33:42.016Z,82.53
2023-04-06T21:36:22.834Z,82.12
2023-04-06T21:38:59.335Z,82.15
2023-04-06T21:41:40.144Z,82.11
2023-04-06T21:44:11.571Z,82.53
2023-04-06T21:46:44.889Z,82.63
2023-04-06T21:49:15.027Z,82.52
2023-04-06T21:51:45.301Z,82.59
2023-04-06T21:54:14.840Z,83.34
2023-04-06T21:56:48.144Z,83.47
2023-04-06T21:59:21.877Z,83.56
2023-04-06T22:01:57.149Z,83.14
2023-04-06T22:04:28.311Z,82.72
2023-04-06T22:06:58.987Z,82.86
2023-04-06T22:09:28.492Z,83.08
2023-04-06T22:12:00.104Z,83.46
2023-04-06T22:14:37.086Z,83.88
2023-04-06T22:17:08.243Z,84.08
2023-04-06T22:19:38.388Z,83.71
2023-04-06T22:22:08.081Z,83.26
2023-04-06T22:24:41.206Z,83.45
2023-04-06T22:27:19.091Z,83.67
2023-04-06T22:29:52.112Z,83.86
2023-04-06T22:32:22.524Z,83.53
2023-04-06T22:34:52.353Z,83.11
2023-04-06T22:38:01.614Z,83.41
2023-04-06T22:40:39.787Z,83.03
2023-04-06T22:43:11.725Z,82.74
2023-04-06T22:45:44.193Z,82.80
2023-04-06T22:48:15.576Z,82.95
2023-04-06T22:50:49.189Z,82.98
2023-04-06T22:53:21.110Z,83.00
2023-04-06T22:55:55.902Z,82.50
2023-04-06T22:58:30.810Z,82.73
2023-04-06T23:01:00.421Z,82.75
2023-04-06T23:03:33.425Z,82.92
2023-04-06T23:06:07.282Z,83.76
2023-04-06T23:08:41.276Z,83.83
2023-04-06T23:11:15.428Z,83.64
2023-04-06T23:14:08.392Z,84.10
2023-04-06T23:16:40.315Z,84.39
2023-04-06T23:19:11.922Z,84.22
2023-04-06T23:22:01.178Z,83.31
2023-04-06T23:27:21.528Z,83.37
2023-04-06T23:29:53.941Z,82.84
2023-04-06T23:32:23.154Z,83.01
2023-04-06T23:35:01.023Z,83.07
2023-04-06T23:37:29.899Z,83.35
2023-04-06T23:39:59.925Z,83.55
2023-04-06T23:42:30.754Z,83.10
2023-04-06T23:45:05.674Z,83.38
2023-04-06T23:47:35.149Z,83.53
2023-04-06T23:50:06.298Z,83.58
2023-04-06T23:52:39.883Z,83.98
2023-04-06T23:55:10.804Z,84.37
2023-04-06T23:57:40.650Z,84.24
